Airfield :
LOGIN :

Register | Disclaimer

   EN    FR    IT 

 










Legend :    VFR   Marginal VFR   IFR   Intensive IFR   Very Intensive IFR
Visi :
Ceiling :
>= 8 km
>= 3000ft
5 to 8 km
1000 to 3000 ft
1500m to 5 km
500 to 1000 ft
800 to 1500m
200 to 500 ft
< 800m
< 200 ft
Symbols :   Thunderstorms  Fog  Heavy snow  Heavy precipitations  Wind > 20 kt
SIGMETs :     Misc.  Thunderstorms  Icing  Turbulence  Mountain Waves  Volcanic Ashes







- Airport Elevation : 147 ft
- IATA code : DUS


EDDL - Düsseldorf Int.

CURRENT METAR :
  • 172250Z 20015KT 6000 -RASN FEW006 SCT012 BKN120 02/00 Q1020 BECMG 2000 SNRA BKN006

EXPIRED METARs :
  • 172220Z 19011KT 9999 -RASN BKN040 03/M00 Q1021 NOSIG
  • 172150Z 19011KT 9999 FEW039 BKN047 04/M00 Q1021 NOSIG
  • 172120Z 19011KT 9999 FEW018 BKN060 04/00 Q1022 NOSIG
  • 172050Z 19011KT 9999 FEW018 SCT080 BKN100 03/01 Q1022 NOSIG
  • 172020Z 19011KT 9999 FEW018 BKN100 04/01 Q1022 NOSIG

TAF COR TAF EDDL
Valid from the 17 at 18:00 until the 19 at 00:00 UTC


171753Z 1718/1824 19007KT 9999 FEW009 BKN013
TEMPO 1718/1723 BKN020
BECMG 1720/1724 17013KT BKN009
TEMPO 1723/1806 3000 SNRA BR BKN003
PROB40
TEMPO 1800/1804 1300 SN
PROB30
TEMPO 1804/1810 2000 -DZRA BR
BECMG 1805/1808 35006KT
TEMPO 1810/1818 3500 BR
No reported NOTAMs for that airfield.



MET'MAP, your aeronautical weather chart ! - Copyright ORBIFLY December 2007 - Disclaimer

ORBIFLY MET'MAP TEAM :

Programming & Development : Alexandra Zaïnal
Concept & Development : Baudouin d'Aumeries
Co-Development & Prog : Marc-Olivier Méhu
Technical & hardware support : Manuel Goepfert

Contact : metmap@orbifly.com




SOURCES & CREDITS :

   NOAA